CYVQ

Details ICAO CYVQ (YVQ)
Name NORMAN WELLS
Region Canada
Timezone America/Yellowknife (UTC-7.0)
Plans Departing 11
Arriving 13
Stats Elevation 238 ft / 73 m (AMSL)
Location 65.281616° -126.798222°
Runways 1
Magnetic Variation 21.035° E
Sunrise 2017-12-12 18:33:43 UTC / 2017-12-12 11:33:43 Local
Sunset 2017-12-12 22:11:19 UTC / 2017-12-12 15:11:19 Local
Advertisement - Login to hide

Runways

ID Width Length Bearing (true) Bearing (mag) Surface Threshold Offset Overrun Length
09 150 ft / 46 m 5,977 ft / 1,822 m 118.74° 97.70° Asphalt 0 ft / 0 m 0 ft / 0 m
27 150 ft / 46 m 5,977 ft / 1,822 m 298.78° 277.74° Asphalt 0 ft / 0 m 0 ft / 0 m

Map

Weather


0- 5 10 15 20 25 30 35+ Temperature / ° C

Clouds and Precipitation
Forecast for 2017-12-12 18:00 UTC. Updated an hour ago

Ground ~20,000 ft ~40,000 ft Winds

METAR

CYVQ 121800Z 19003KT 120V240 30SM FEW084 FEW250 M17/M19 A2989 RMK AC1CI1 AC TR CI TR FROIN SLP131

TAF

TAF CYVQ 121738Z 1218/1306 VRB03KT P6SM FEW012 FEW080 BECMG 1219/1221 28007KT RMK NXT FCST BY 130000Z

Frequencies

Tower 122.20 MHz MF
Approach 134.82 MHz EDMONTON CNTR
Warning: Do not use this data for real-world aviation or navigation. No guarantee of current accuracy is given.